createdAt,value
2018-03-04T00:00:07.192Z,49.30
2018-03-04T00:01:12.101Z,49.40
2018-03-04T00:02:17.128Z,49.50
2018-03-04T00:03:22.167Z,49.40
2018-03-04T00:04:27.091Z,49.50
2018-03-04T00:05:32.028Z,49.40
2018-03-04T00:06:37.049Z,49.30
2018-03-04T00:07:41.952Z,49.40
2018-03-04T00:08:47.001Z,49.30
2018-03-04T00:09:52.051Z,49.40
2018-03-04T00:10:57.287Z,49.30
2018-03-04T00:12:02.272Z,49.40
2018-03-04T00:13:07.118Z,49.40
2018-03-04T00:14:12.053Z,49.40
2018-03-04T00:15:18.508Z,49.70
2018-03-04T00:16:23.332Z,49.60
2018-03-04T00:17:28.349Z,49.70
2018-03-04T00:18:33.255Z,49.60
2018-03-04T00:19:38.104Z,49.60
2018-03-04T00:20:42.995Z,49.50
2018-03-04T00:21:47.889Z,48.90
2018-03-04T00:22:53.023Z,48.90
2018-03-04T00:23:58.034Z,49.00
2018-03-04T00:25:03.008Z,48.80
2018-03-04T00:26:07.840Z,48.80
2018-03-04T00:27:12.811Z,48.90
2018-03-04T00:28:17.812Z,48.90
2018-03-04T00:29:22.752Z,48.80
2018-03-04T00:30:30.516Z,48.80
2018-03-04T00:31:35.377Z,48.90
2018-03-04T00:32:40.338Z,48.90
2018-03-04T00:33:45.220Z,49.00
2018-03-04T00:34:50.148Z,49.00
2018-03-04T00:35:55.232Z,49.10
2018-03-04T00:37:00.201Z,49.10
2018-03-04T00:38:05.216Z,49.10
2018-03-04T00:39:10.216Z,49.20
2018-03-04T00:40:15.090Z,49.10
2018-03-04T00:41:20.157Z,49.20
2018-03-04T00:42:25.103Z,49.10
2018-03-04T00:43:30.185Z,49.20
2018-03-04T00:44:35.042Z,49.80
2018-03-04T00:45:40.131Z,49.20
2018-03-04T00:46:45.123Z,49.20
2018-03-04T00:47:50.070Z,49.30
2018-03-04T00:48:55.058Z,49.20
2018-03-04T00:49:59.984Z,49.20
2018-03-04T00:51:04.919Z,49.10
2018-03-04T00:52:10.052Z,49.10
2018-03-04T00:53:14.900Z,49.20
2018-03-04T00:54:19.749Z,49.30
2018-03-04T00:55:39.432Z,49.30
2018-03-04T00:56:44.462Z,49.20
2018-03-04T00:57:49.448Z,49.20
2018-03-04T00:58:54.387Z,49.30
2018-03-04T00:59:59.356Z,49.20
2018-03-04T01:01:04.337Z,49.30
2018-03-04T01:02:09.349Z,49.30
2018-03-04T01:03:14.309Z,49.30
2018-03-04T01:04:19.252Z,49.30
2018-03-04T01:05:24.157Z,49.30
2018-03-04T01:06:29.174Z,49.50
2018-03-04T01:07:34.209Z,49.40
2018-03-04T01:08:39.144Z,49.50
2018-03-04T01:09:44.128Z,49.40
2018-03-04T01:10:49.053Z,49.50
2018-03-04T01:11:53.948Z,49.40
2018-03-04T01:12:58.859Z,49.60
2018-03-04T01:14:03.771Z,49.50
2018-03-04T01:15:08.618Z,49.50
2018-03-04T01:16:13.380Z,49.40
2018-03-04T01:17:18.388Z,49.50
2018-03-04T01:18:23.316Z,49.60
2018-03-04T01:19:28.086Z,49.40
2018-03-04T01:20:33.058Z,49.50
2018-03-04T01:21:37.889Z,49.50
2018-03-04T01:22:42.799Z,49.60
2018-03-04T01:23:47.587Z,49.50
2018-03-04T01:24:52.418Z,49.60
2018-03-04T01:25:57.269Z,49.70
2018-03-04T01:27:02.265Z,49.80
2018-03-04T01:28:07.259Z,49.80
2018-03-04T01:29:12.343Z,49.90
2018-03-04T01:30:17.391Z,49.90
2018-03-04T01:31:22.227Z,50.10
2018-03-04T01:32:26.992Z,50.00
2018-03-04T01:33:31.813Z,50.10
2018-03-04T01:34:36.613Z,50.10
2018-03-04T01:35:41.492Z,50.00
2018-03-04T01:36:46.327Z,50.00
2018-03-04T01:37:51.658Z,50.00
2018-03-04T01:38:56.625Z,49.80
2018-03-04T01:40:01.577Z,49.90
2018-03-04T01:41:06.464Z,49.80
2018-03-04T01:42:11.369Z,49.80
2018-03-04T01:43:16.261Z,49.80
2018-03-04T01:44:21.142Z,49.90
2018-03-04T01:45:26.129Z,49.90
2018-03-04T01:46:31.078Z,49.90
2018-03-04T01:47:35.899Z,49.90
2018-03-04T01:48:40.880Z,49.90
2018-03-04T01:49:45.664Z,49.80
2018-03-04T01:50:50.545Z,49.50
2018-03-04T01:51:55.509Z,49.40
2018-03-04T01:53:00.430Z,49.40
2018-03-04T01:54:05.283Z,49.50
2018-03-04T01:55:10.182Z,49.40
2018-03-04T01:56:15.204Z,49.30
2018-03-04T01:57:20.076Z,49.40
2018-03-04T01:58:25.049Z,49.10
2018-03-04T01:59:29.922Z,49.30
2018-03-04T02:00:34.896Z,49.20
2018-03-04T02:01:39.880Z,49.20
2018-03-04T02:02:44.738Z,49.20
2018-03-04T02:03:49.698Z,49.10
2018-03-04T02:04:54.501Z,49.30
2018-03-04T02:05:59.381Z,49.00
2018-03-04T02:07:04.393Z,49.20
2018-03-04T02:08:09.422Z,49.30
2018-03-04T02:09:14.358Z,49.00
2018-03-04T02:10:19.144Z,49.20
2018-03-04T02:11:24.016Z,49.30
2018-03-04T02:12:28.853Z,49.10
2018-03-04T02:13:33.783Z,49.20
2018-03-04T02:14:38.669Z,49.00
2018-03-04T02:15:43.500Z,49.10
2018-03-04T02:16:48.471Z,49.10
2018-03-04T02:17:53.462Z,49.30
2018-03-04T02:18:58.314Z,49.30
2018-03-04T02:20:03.381Z,49.20
2018-03-04T02:21:08.253Z,49.40
2018-03-04T02:22:13.072Z,49.50
2018-03-04T02:23:17.955Z,49.50
2018-03-04T02:24:22.889Z,49.60
2018-03-04T02:25:27.788Z,49.60
2018-03-04T02:26:32.682Z,49.60
2018-03-04T02:27:37.698Z,49.50
2018-03-04T02:28:42.644Z,49.60
2018-03-04T02:29:47.630Z,49.50
2018-03-04T02:30:52.631Z,49.60
2018-03-04T02:31:57.654Z,49.50
2018-03-04T02:33:02.620Z,49.50
2018-03-04T02:34:07.581Z,49.50
2018-03-04T02:35:12.462Z,49.50
2018-03-04T02:36:17.309Z,49.60
2018-03-04T02:37:22.324Z,49.50
2018-03-04T02:38:27.184Z,49.60
2018-03-04T02:39:32.269Z,49.50
2018-03-04T02:40:37.228Z,49.60
2018-03-04T02:41:42.598Z,49.60
2018-03-04T02:42:47.561Z,49.50
2018-03-04T02:43:52.557Z,49.60
2018-03-04T02:44:57.492Z,49.50
2018-03-04T02:46:02.369Z,49.50
2018-03-04T02:47:07.160Z,49.50
2018-03-04T02:48:12.202Z,49.60
2018-03-04T02:49:17.195Z,49.60
2018-03-04T02:50:22.072Z,49.70
2018-03-04T02:51:27.072Z,49.60
2018-03-04T02:52:31.959Z,49.60
2018-03-04T02:53:36.917Z,49.60
2018-03-04T02:54:41.793Z,49.50
2018-03-04T02:55:46.833Z,49.50
2018-03-04T02:56:51.730Z,49.50
2018-03-04T02:57:56.839Z,49.50
2018-03-04T02:59:01.712Z,49.50
2018-03-04T03:00:06.676Z,49.60
2018-03-04T03:01:11.792Z,49.50
2018-03-04T03:02:16.764Z,49.50
2018-03-04T03:03:21.752Z,49.50
2018-03-04T03:04:26.755Z,49.50
2018-03-04T03:05:31.624Z,49.50
2018-03-04T03:06:36.627Z,49.40
2018-03-04T03:07:41.583Z,49.40
2018-03-04T03:08:46.610Z,49.40
2018-03-04T03:09:51.679Z,49.40
2018-03-04T03:10:56.613Z,49.30
2018-03-04T03:12:01.454Z,49.40
2018-03-04T03:13:06.546Z,49.40
2018-03-04T03:14:11.453Z,49.40
2018-03-04T03:15:16.560Z,49.40
2018-03-04T03:16:21.455Z,49.30
2018-03-04T03:17:26.405Z,49.30
2018-03-04T03:18:31.363Z,49.40
2018-03-04T03:19:36.347Z,49.30
2018-03-04T03:20:41.207Z,49.30
2018-03-04T03:21:46.065Z,49.30
2018-03-04T03:22:51.150Z,49.30
2018-03-04T03:23:56.026Z,49.20
2018-03-04T03:25:01.005Z,49.30
2018-03-04T03:26:05.964Z,49.30
2018-03-04T03:27:10.890Z,49.30
2018-03-04T03:28:15.815Z,49.30
2018-03-04T03:29:20.988Z,49.20
2018-03-04T03:30:25.971Z,49.30
2018-03-04T03:31:30.932Z,49.30
2018-03-04T03:32:35.957Z,49.30
2018-03-04T03:33:40.789Z,49.30
2018-03-04T03:34:45.716Z,49.40
2018-03-04T03:35:50.705Z,49.40
2018-03-04T03:36:55.615Z,49.30
2018-03-04T03:38:00.548Z,49.30
2018-03-04T03:39:05.458Z,49.30
2018-03-04T03:40:10.457Z,49.40
2018-03-04T03:41:15.393Z,49.30
2018-03-04T03:42:20.254Z,49.20
2018-03-04T03:43:25.213Z,49.20
2018-03-04T03:44:30.146Z,49.10
2018-03-04T03:45:35.076Z,49.20
2018-03-04T03:46:40.005Z,49.20
2018-03-04T03:47:44.857Z,49.30
2018-03-04T03:48:49.726Z,49.00
2018-03-04T03:49:54.760Z,49.00
2018-03-04T03:50:59.609Z,49.00
2018-03-04T03:52:04.473Z,49.20
2018-03-04T03:53:09.304Z,49.10
2018-03-04T03:54:14.273Z,49.20
2018-03-04T03:55:19.212Z,49.00
2018-03-04T03:56:24.155Z,48.90
2018-03-04T03:57:29.014Z,49.10
2018-03-04T03:58:33.850Z,49.00
2018-03-04T03:59:38.678Z,49.00
2018-03-04T04:00:43.789Z,49.00
2018-03-04T04:01:48.809Z,49.30
2018-03-04T04:02:53.625Z,49.20
2018-03-04T04:03:58.561Z,49.30
2018-03-04T04:05:03.438Z,49.30
2018-03-04T04:06:08.253Z,49.20
2018-03-04T04:07:13.199Z,49.20
2018-03-04T04:08:18.000Z,49.30
2018-03-04T04:09:22.983Z,49.30
2018-03-04T04:10:27.926Z,49.40
2018-03-04T04:11:32.716Z,49.30
2018-03-04T04:12:37.691Z,49.40
2018-03-04T04:13:42.654Z,49.40
2018-03-04T04:14:47.485Z,49.30
2018-03-04T04:15:52.249Z,49.20
2018-03-04T04:16:57.230Z,49.20
2018-03-04T04:18:02.138Z,50.00
2018-03-04T04:19:07.056Z,49.30
2018-03-04T04:20:11.958Z,49.30
2018-03-04T04:21:16.873Z,49.30
2018-03-04T04:22:21.807Z,49.30
2018-03-04T04:23:26.731Z,49.20
2018-03-04T04:24:31.672Z,49.20
2018-03-04T04:25:36.515Z,49.10
2018-03-04T04:26:41.353Z,49.10
2018-03-04T04:27:46.178Z,49.10
2018-03-04T04:28:51.176Z,49.10
2018-03-04T04:29:56.023Z,49.00
2018-03-04T04:31:00.817Z,49.00
2018-03-04T04:32:05.651Z,49.00
2018-03-04T04:33:10.608Z,49.00
2018-03-04T04:34:16.201Z,49.00
2018-03-04T04:35:21.388Z,48.90
2018-03-04T04:36:26.367Z,48.90
2018-03-04T04:37:31.351Z,48.80
2018-03-04T04:38:36.294Z,48.90
2018-03-04T04:39:41.183Z,48.90
2018-03-04T04:40:46.154Z,48.80
2018-03-04T04:41:51.107Z,48.80
2018-03-04T04:42:56.138Z,48.70
2018-03-04T04:44:04.024Z,48.70
2018-03-04T04:45:08.996Z,48.70
2018-03-04T04:46:14.014Z,48.60
2018-03-04T04:47:18.950Z,48.60
2018-03-04T04:48:23.904Z,48.60
2018-03-04T04:49:28.703Z,48.80
2018-03-04T04:50:33.620Z,48.90
2018-03-04T04:51:38.474Z,48.80
2018-03-04T04:52:43.323Z,48.80
2018-03-04T04:53:48.229Z,48.80
2018-03-04T04:54:53.201Z,48.70
2018-03-04T04:55:58.157Z,49.00
2018-03-04T04:57:03.188Z,49.00
2018-03-04T04:58:08.077Z,49.00
2018-03-04T04:59:13.037Z,48.80
2018-03-04T05:00:17.942Z,48.90
2018-03-04T05:01:22.758Z,49.10
2018-03-04T05:02:27.606Z,49.10
2018-03-04T05:03:32.445Z,49.10
2018-03-04T05:04:39.152Z,49.10
2018-03-04T05:05:55.845Z,48.90
2018-03-04T05:07:00.895Z,48.80
2018-03-04T05:08:05.778Z,48.80
2018-03-04T05:09:10.748Z,48.80
2018-03-04T05:10:15.686Z,48.90
2018-03-04T05:11:20.694Z,48.90
2018-03-04T05:12:25.680Z,48.90
2018-03-04T05:13:30.686Z,48.80
2018-03-04T05:14:35.715Z,48.80
2018-03-04T05:15:40.670Z,48.80
2018-03-04T05:16:45.578Z,48.80
2018-03-04T05:17:50.382Z,48.80
2018-03-04T05:18:55.211Z,48.90
2018-03-04T05:20:00.087Z,49.10
2018-03-04T05:21:04.998Z,49.00
2018-03-04T05:22:09.900Z,49.00
2018-03-04T05:23:14.895Z,49.20
2018-03-04T05:24:19.869Z,49.20
2018-03-04T05:25:24.656Z,49.20
2018-03-04T05:26:29.670Z,49.10
2018-03-04T05:27:34.669Z,49.00
2018-03-04T05:28:39.641Z,49.20
2018-03-04T05:29:44.465Z,49.40
2018-03-04T05:30:49.529Z,49.90
2018-03-04T05:31:54.516Z,49.20
2018-03-04T05:32:59.883Z,49.20
2018-03-04T05:34:04.848Z,49.20
2018-03-04T05:35:09.781Z,49.10
2018-03-04T05:36:14.683Z,48.90
2018-03-04T05:37:19.683Z,48.90
2018-03-04T05:38:24.585Z,48.90
2018-03-04T05:39:29.452Z,49.10
2018-03-04T05:40:34.355Z,49.20
2018-03-04T05:41:39.292Z,49.30
2018-03-04T05:42:44.224Z,49.30
2018-03-04T05:43:49.284Z,49.20
2018-03-04T05:44:54.204Z,49.10
2018-03-04T05:45:59.130Z,49.10
2018-03-04T05:47:04.047Z,49.00
2018-03-04T05:48:09.145Z,48.90
2018-03-04T05:49:14.048Z,49.00
2018-03-04T05:50:19.003Z,48.80
2018-03-04T05:51:23.889Z,48.60
2018-03-04T05:52:28.710Z,48.60
2018-03-04T05:53:33.491Z,48.50
2018-03-04T05:54:38.370Z,48.40
2018-03-04T05:55:43.316Z,48.60
2018-03-04T05:56:48.224Z,48.50
2018-03-04T05:57:53.045Z,48.50
2018-03-04T05:58:58.478Z,48.50
2018-03-04T06:00:03.355Z,48.50
2018-03-04T06:01:08.183Z,48.50
2018-03-04T06:02:12.937Z,48.50
2018-03-04T06:03:17.727Z,48.50
2018-03-04T06:04:22.674Z,48.50
2018-03-04T06:05:27.624Z,48.40
2018-03-04T06:06:32.481Z,48.30
2018-03-04T06:07:37.339Z,48.40
2018-03-04T06:08:42.164Z,48.40
2018-03-04T06:09:47.100Z,48.40
2018-03-04T06:10:52.168Z,48.70
2018-03-04T06:11:57.001Z,48.70
2018-03-04T06:13:01.808Z,48.90
2018-03-04T06:14:06.597Z,48.80
2018-03-04T06:15:11.489Z,49.20
2018-03-04T06:16:16.355Z,49.20
2018-03-04T06:17:21.337Z,49.20
2018-03-04T06:18:26.241Z,49.30
2018-03-04T06:19:31.127Z,49.40
2018-03-04T06:20:36.018Z,49.50
2018-03-04T06:21:41.000Z,45.00
2018-03-04T06:22:45.850Z,36.40
2018-03-04T06:23:50.816Z,31.40
2018-03-04T06:24:55.763Z,29.10
2018-03-04T06:26:00.589Z,30.20
2018-03-04T06:27:05.405Z,32.10
2018-03-04T06:28:10.220Z,35.10
2018-03-04T06:29:15.255Z,36.90
2018-03-04T06:30:20.250Z,37.30
2018-03-04T06:31:25.171Z,36.60
2018-03-04T06:32:30.193Z,35.80
2018-03-04T06:33:35.109Z,35.50
2018-03-04T06:34:39.937Z,35.50
2018-03-04T06:35:45.161Z,35.80
2018-03-04T06:36:50.085Z,36.10
2018-03-04T06:37:54.956Z,36.30
2018-03-04T06:38:59.816Z,36.40
2018-03-04T06:40:04.834Z,36.60
2018-03-04T06:41:09.699Z,36.90
2018-03-04T06:42:14.466Z,36.80
2018-03-04T06:43:19.397Z,36.90
2018-03-04T06:44:24.310Z,36.90
2018-03-04T06:45:29.137Z,36.90
2018-03-04T06:46:33.931Z,37.00
2018-03-04T06:47:38.870Z,37.20
2018-03-04T06:48:43.863Z,37.50
2018-03-04T06:49:48.671Z,37.70
2018-03-04T06:50:53.701Z,37.80
2018-03-04T06:51:58.638Z,37.90
2018-03-04T06:53:03.595Z,38.10
2018-03-04T06:54:08.565Z,38.30
2018-03-04T06:55:13.510Z,38.60
2018-03-04T06:56:18.416Z,38.80
2018-03-04T06:57:23.313Z,39.00
2018-03-04T06:58:28.235Z,39.20
2018-03-04T06:59:33.027Z,39.50
2018-03-04T07:00:38.080Z,39.70
2018-03-04T07:01:42.902Z,40.00
2018-03-04T07:02:47.737Z,40.30
2018-03-04T07:03:52.729Z,40.40
2018-03-04T07:04:57.769Z,40.60
2018-03-04T07:06:02.816Z,40.80
2018-03-04T07:07:07.793Z,41.10
2018-03-04T07:08:12.805Z,41.20
2018-03-04T07:09:17.613Z,41.40
2018-03-04T07:10:22.510Z,41.50
2018-03-04T07:11:27.374Z,41.80
2018-03-04T07:12:32.315Z,42.00
2018-03-04T07:13:37.290Z,42.20
2018-03-04T07:14:42.095Z,42.20
2018-03-04T07:15:47.083Z,42.40
2018-03-04T07:16:51.965Z,42.70
2018-03-04T07:17:57.070Z,42.60
2018-03-04T07:19:02.110Z,42.80
2018-03-04T07:20:07.207Z,42.90
2018-03-04T07:21:12.110Z,43.00
2018-03-04T07:22:17.205Z,43.00
2018-03-04T07:23:22.083Z,43.10
2018-03-04T07:24:27.086Z,43.20
2018-03-04T07:25:32.075Z,43.50
2018-03-04T07:26:36.930Z,43.50
2018-03-04T07:27:41.829Z,43.60
2018-03-04T07:28:46.649Z,43.80
2018-03-04T07:29:51.529Z,44.00
2018-03-04T07:30:56.392Z,44.20
2018-03-04T07:32:01.824Z,44.40
2018-03-04T07:33:07.121Z,44.60
2018-03-04T07:34:12.148Z,44.50
2018-03-04T07:35:17.100Z,44.50
2018-03-04T07:36:22.078Z,44.70
2018-03-04T07:37:27.091Z,44.80
2018-03-04T07:38:31.964Z,44.90
2018-03-04T07:39:36.923Z,44.90
2018-03-04T07:40:41.902Z,45.00
2018-03-04T07:41:46.756Z,45.10
2018-03-04T07:42:52.127Z,45.20
2018-03-04T07:43:56.933Z,45.40
2018-03-04T07:45:01.873Z,45.60
2018-03-04T07:46:06.829Z,45.80
2018-03-04T07:47:11.770Z,45.80
2018-03-04T07:48:16.620Z,46.00
2018-03-04T07:49:21.630Z,46.00
2018-03-04T07:50:26.659Z,46.10
2018-03-04T07:51:31.629Z,46.30
2018-03-04T07:52:36.466Z,46.40
2018-03-04T07:53:41.355Z,46.50
2018-03-04T07:54:46.148Z,46.60
2018-03-04T07:55:50.948Z,46.50
2018-03-04T07:56:55.950Z,46.50
2018-03-04T07:58:00.815Z,46.50
2018-03-04T07:59:05.738Z,46.70
2018-03-04T08:00:10.669Z,46.90
2018-03-04T08:01:15.461Z,47.10
2018-03-04T08:02:20.433Z,47.10
2018-03-04T08:03:25.446Z,47.20
2018-03-04T08:04:30.335Z,47.40
2018-03-04T08:05:35.356Z,47.40
2018-03-04T08:06:40.174Z,47.60
2018-03-04T08:07:45.114Z,47.70
2018-03-04T08:08:49.975Z,47.80
2018-03-04T08:09:54.865Z,47.90
2018-03-04T08:10:59.783Z,48.10
2018-03-04T08:12:04.593Z,48.00
2018-03-04T08:13:09.572Z,48.10
2018-03-04T08:14:14.458Z,48.10
2018-03-04T08:15:19.425Z,48.10
2018-03-04T08:16:24.283Z,48.10
2018-03-04T08:17:29.072Z,48.10
2018-03-04T08:18:33.941Z,47.90
2018-03-04T08:19:39.345Z,48.20
2018-03-04T08:20:44.238Z,46.40
2018-03-04T08:21:49.082Z,46.10
2018-03-04T08:22:54.077Z,46.00
2018-03-04T08:23:59.043Z,46.10
2018-03-04T08:25:03.893Z,46.20
2018-03-04T08:26:08.809Z,46.30
2018-03-04T08:27:13.848Z,46.70
2018-03-04T08:28:18.762Z,46.70
2018-03-04T08:29:23.766Z,46.90
2018-03-04T08:30:28.636Z,47.10
2018-03-04T08:31:33.625Z,47.00
2018-03-04T08:32:38.500Z,46.90
2018-03-04T08:33:43.432Z,47.10
2018-03-04T08:34:48.595Z,47.30
2018-03-04T08:35:53.564Z,47.40
2018-03-04T08:36:58.494Z,47.40
2018-03-04T08:38:03.517Z,47.50
2018-03-04T08:39:08.527Z,47.60
2018-03-04T08:40:13.357Z,47.60
2018-03-04T08:41:18.192Z,47.70
2018-03-04T08:42:23.144Z,47.60
2018-03-04T08:43:27.958Z,47.80
2018-03-04T08:44:32.763Z,47.90
2018-03-04T08:45:37.810Z,48.00
2018-03-04T08:46:42.623Z,48.10
2018-03-04T08:47:47.597Z,48.10
2018-03-04T08:48:52.523Z,48.30
2018-03-04T08:49:57.547Z,48.40
2018-03-04T08:51:02.852Z,48.50
2018-03-04T08:52:07.861Z,48.50
2018-03-04T08:53:12.949Z,48.60
2018-03-04T08:54:17.902Z,48.60
2018-03-04T08:55:22.934Z,48.60
2018-03-04T08:56:27.752Z,48.60
2018-03-04T08:57:32.724Z,48.80
2018-03-04T08:58:37.554Z,48.80
2018-03-04T08:59:42.499Z,48.80
2018-03-04T09:00:47.467Z,48.80
2018-03-04T09:01:52.359Z,48.80
2018-03-04T09:02:57.255Z,48.80
2018-03-04T09:04:02.456Z,48.70
2018-03-04T09:05:07.230Z,48.80
2018-03-04T09:06:12.024Z,48.80
2018-03-04T09:07:17.000Z,48.80
2018-03-04T09:08:21.834Z,49.00
2018-03-04T09:09:26.827Z,49.10
2018-03-04T09:10:31.815Z,49.00
2018-03-04T09:11:36.673Z,49.10
2018-03-04T09:12:42.294Z,49.00
2018-03-04T09:13:47.292Z,49.20
2018-03-04T09:14:52.227Z,49.20
2018-03-04T09:15:57.089Z,49.10
2018-03-04T09:17:02.152Z,49.20
2018-03-04T09:18:07.051Z,49.30
2018-03-04T09:19:12.008Z,49.40
2018-03-04T09:20:16.965Z,49.30
2018-03-04T09:21:21.763Z,49.30
2018-03-04T09:22:26.549Z,49.40
2018-03-04T09:23:31.504Z,49.40
2018-03-04T09:24:36.347Z,49.30
2018-03-04T09:25:41.290Z,50.00
2018-03-04T09:26:46.165Z,49.40
2018-03-04T09:27:51.090Z,49.50
2018-03-04T09:28:55.937Z,49.40
2018-03-04T09:30:01.296Z,49.40
2018-03-04T09:31:06.207Z,49.40
2018-03-04T09:32:11.203Z,49.40
2018-03-04T09:33:16.178Z,49.50
2018-03-04T09:34:22.023Z,49.60
2018-03-04T09:35:26.974Z,49.60
2018-03-04T09:36:31.882Z,49.60
2018-03-04T09:37:36.730Z,49.60
2018-03-04T09:38:41.567Z,50.50
2018-03-04T09:39:46.436Z,49.60
2018-03-04T09:40:51.386Z,49.60
2018-03-04T09:41:56.367Z,49.60
2018-03-04T09:43:01.318Z,49.60
2018-03-04T09:44:06.189Z,49.60
2018-03-04T09:45:11.673Z,49.60
2018-03-04T09:46:16.602Z,49.50
2018-03-04T09:47:21.572Z,49.60
2018-03-04T09:48:26.480Z,49.60
2018-03-04T09:49:31.440Z,50.00
2018-03-04T09:50:36.337Z,50.30
2018-03-04T09:51:41.221Z,50.40
2018-03-04T09:52:49.124Z,50.60
2018-03-04T09:53:54.125Z,50.70
2018-03-04T09:54:59.210Z,50.70
2018-03-04T09:56:04.238Z,50.90
2018-03-04T09:57:09.148Z,51.10
2018-03-04T09:58:14.234Z,51.20
2018-03-04T09:59:19.230Z,51.80
2018-03-04T10:00:24.203Z,51.90
2018-03-04T10:01:29.312Z,52.40
2018-03-04T10:02:34.295Z,52.50
2018-03-04T10:03:39.299Z,52.30
2018-03-04T10:04:44.281Z,52.20
2018-03-04T10:05:49.124Z,53.00
2018-03-04T10:06:53.936Z,53.10
2018-03-04T10:07:58.987Z,53.30
2018-03-04T10:09:03.879Z,53.20
2018-03-04T10:10:08.865Z,53.60
2018-03-04T10:11:13.712Z,53.80
2018-03-04T10:12:18.649Z,53.70
2018-03-04T10:13:23.643Z,53.60
2018-03-04T10:14:28.523Z,53.40
2018-03-04T10:15:33.558Z,53.60
2018-03-04T10:16:38.442Z,53.70
2018-03-04T10:17:43.410Z,53.90
2018-03-04T10:18:48.433Z,54.00
2018-03-04T10:19:53.460Z,54.40
2018-03-04T10:20:58.483Z,53.80
2018-03-04T10:22:03.389Z,54.10
2018-03-04T10:23:08.429Z,53.90
2018-03-04T10:24:13.638Z,53.50
2018-03-04T10:25:18.752Z,53.20
2018-03-04T10:26:23.721Z,53.10
2018-03-04T10:27:28.715Z,52.70
2018-03-04T10:28:33.720Z,52.50
2018-03-04T10:29:38.779Z,52.30
2018-03-04T10:30:43.681Z,52.20
2018-03-04T10:31:48.657Z,52.10
2018-03-04T10:32:56.209Z,52.10
2018-03-04T10:34:01.217Z,51.90
2018-03-04T10:35:06.317Z,52.10
2018-03-04T10:36:11.216Z,52.00
2018-03-04T10:37:16.208Z,52.00
2018-03-04T10:38:21.166Z,52.00
2018-03-04T10:39:26.069Z,52.00
2018-03-04T10:40:30.997Z,52.10
2018-03-04T10:41:36.013Z,52.10
2018-03-04T10:42:40.992Z,52.30
2018-03-04T10:43:45.990Z,52.20
2018-03-04T10:44:51.069Z,52.60
2018-03-04T10:45:56.112Z,52.50
2018-03-04T10:47:01.035Z,52.60
2018-03-04T10:48:06.134Z,52.60
2018-03-04T10:49:11.732Z,52.60
2018-03-04T10:50:16.656Z,52.70
2018-03-04T10:51:21.530Z,52.60
2018-03-04T10:52:26.367Z,52.70
2018-03-04T10:53:31.430Z,52.60
2018-03-04T10:54:36.461Z,52.50
2018-03-04T10:55:41.424Z,52.40
2018-03-04T10:56:46.464Z,52.40
2018-03-04T10:57:51.444Z,49.60
2018-03-04T10:58:56.396Z,44.00
2018-03-04T11:00:02.053Z,43.50
2018-03-04T11:01:07.044Z,41.20
2018-03-04T11:02:12.041Z,40.80
2018-03-04T11:03:16.917Z,36.70
2018-03-04T11:04:21.767Z,31.70
2018-03-04T11:05:26.645Z,32.10
2018-03-04T11:06:31.606Z,31.30
2018-03-04T11:07:37.133Z,30.30
2018-03-04T11:08:42.008Z,30.90
2018-03-04T11:09:47.002Z,33.10
2018-03-04T11:10:52.002Z,35.60
2018-03-04T11:11:57.046Z,35.50
2018-03-04T11:13:02.091Z,36.00
2018-03-04T11:14:06.969Z,35.90
2018-03-04T11:15:11.909Z,36.20
2018-03-04T11:16:16.835Z,36.50
2018-03-04T11:17:21.752Z,36.50
2018-03-04T11:18:26.626Z,37.10
2018-03-04T11:19:31.519Z,37.40
2018-03-04T11:20:36.560Z,37.80
2018-03-04T11:21:41.513Z,38.10
2018-03-04T11:22:46.560Z,38.40
2018-03-04T11:23:51.386Z,38.70
2018-03-04T11:24:56.171Z,39.10
2018-03-04T11:26:01.128Z,39.50
2018-03-04T11:27:05.957Z,39.70
2018-03-04T11:28:10.890Z,40.10
2018-03-04T11:29:15.742Z,40.50
2018-03-04T11:30:20.738Z,40.80
2018-03-04T11:31:25.693Z,41.00
2018-03-04T11:32:30.540Z,40.90
2018-03-04T11:33:35.569Z,41.00
2018-03-04T11:34:40.559Z,41.40
2018-03-04T11:35:45.554Z,41.50
2018-03-04T11:36:50.524Z,41.90
2018-03-04T11:37:55.423Z,42.20
2018-03-04T11:39:00.304Z,42.30
2018-03-04T11:40:05.318Z,42.50
2018-03-04T11:41:10.350Z,42.90
2018-03-04T11:42:15.523Z,43.50
2018-03-04T11:43:20.586Z,43.90
2018-03-04T11:44:25.547Z,44.00
2018-03-04T11:45:30.539Z,44.20
2018-03-04T11:46:35.484Z,44.30
2018-03-04T11:47:40.447Z,44.40
2018-03-04T11:48:45.478Z,44.60
2018-03-04T11:49:50.391Z,44.70
2018-03-04T11:50:55.261Z,44.70
2018-03-04T11:52:00.222Z,44.70
2018-03-04T11:53:05.227Z,44.80
2018-03-04T11:54:10.060Z,44.80
2018-03-04T11:55:14.970Z,44.70
2018-03-04T11:56:19.889Z,44.80
2018-03-04T11:57:24.708Z,44.80
2018-03-04T11:58:29.554Z,44.90
2018-03-04T11:59:34.538Z,45.00
2018-03-04T12:00:39.572Z,45.50
2018-03-04T12:01:44.584Z,45.50
2018-03-04T12:02:49.598Z,45.50
2018-03-04T12:03:54.660Z,45.30
2018-03-04T12:04:59.507Z,45.20
2018-03-04T12:06:04.376Z,45.20
2018-03-04T12:07:09.269Z,45.20
2018-03-04T12:08:14.063Z,45.20
2018-03-04T12:09:19.129Z,45.20
2018-03-04T12:10:24.298Z,45.20
2018-03-04T12:11:29.389Z,45.20
2018-03-04T12:12:34.367Z,45.20
2018-03-04T12:13:39.375Z,45.20
2018-03-04T12:14:44.455Z,45.10
2018-03-04T12:15:49.436Z,45.10
2018-03-04T12:16:54.225Z,45.40
2018-03-04T12:17:59.149Z,45.40
2018-03-04T12:19:04.151Z,45.60
2018-03-04T12:20:09.021Z,45.60
2018-03-04T12:21:13.918Z,45.70
2018-03-04T12:22:18.929Z,45.60
2018-03-04T12:23:23.850Z,45.70
2018-03-04T12:24:28.824Z,45.70
2018-03-04T12:25:33.724Z,46.00
2018-03-04T12:26:38.622Z,46.70
2018-03-04T12:27:43.576Z,46.20
2018-03-04T12:28:48.407Z,46.20
2018-03-04T12:29:53.482Z,46.30
2018-03-04T12:30:58.295Z,46.30
2018-03-04T12:32:03.322Z,46.40
2018-03-04T12:33:08.282Z,46.40
2018-03-04T12:34:13.212Z,46.50
2018-03-04T12:35:18.096Z,46.50
2018-03-04T12:36:23.220Z,46.50
2018-03-04T12:37:28.269Z,46.20
2018-03-04T12:38:33.533Z,45.50
2018-03-04T12:39:38.539Z,45.10
2018-03-04T12:40:43.576Z,45.20
2018-03-04T12:41:48.600Z,45.30
2018-03-04T12:42:53.702Z,45.40
2018-03-04T12:43:58.716Z,45.60
2018-03-04T12:45:04.069Z,45.80
2018-03-04T12:46:08.929Z,45.90
2018-03-04T12:47:13.866Z,46.40
2018-03-04T12:48:18.983Z,47.00
2018-03-04T12:49:23.831Z,46.90
2018-03-04T12:50:28.956Z,47.40
2018-03-04T12:51:33.962Z,47.60
2018-03-04T12:52:38.886Z,47.80
2018-03-04T12:53:43.704Z,48.10
2018-03-04T12:54:48.895Z,48.20
2018-03-04T12:55:54.159Z,48.40
2018-03-04T12:56:59.408Z,48.80
2018-03-04T12:58:04.418Z,48.70
2018-03-04T12:59:09.508Z,48.70
2018-03-04T13:00:14.550Z,49.00
2018-03-04T13:01:19.696Z,49.40
2018-03-04T13:02:24.555Z,49.20
2018-03-04T13:03:29.517Z,49.40
2018-03-04T13:04:34.520Z,49.40
2018-03-04T13:05:39.552Z,49.60
2018-03-04T13:06:44.649Z,49.70
2018-03-04T13:07:49.727Z,49.70
2018-03-04T13:08:55.636Z,49.60
2018-03-04T13:10:00.775Z,49.70
2018-03-04T13:11:05.750Z,49.80
2018-03-04T13:12:10.780Z,49.40
2018-03-04T13:13:15.695Z,49.40
2018-03-04T13:14:20.751Z,49.80
2018-03-04T13:15:25.765Z,49.90
2018-03-04T13:16:30.868Z,50.40
2018-03-04T13:17:36.745Z,50.10
2018-03-04T13:18:41.929Z,50.10
2018-03-04T13:19:47.009Z,50.40
2018-03-04T13:20:52.100Z,50.40
2018-03-04T13:21:57.185Z,50.40
2018-03-04T13:23:02.245Z,50.60
2018-03-04T13:24:07.308Z,50.60
2018-03-04T13:25:12.426Z,51.10
2018-03-04T13:26:17.640Z,50.90
2018-03-04T13:27:22.619Z,50.50
2018-03-04T13:28:28.165Z,50.40
2018-03-04T13:29:33.755Z,50.40
2018-03-04T13:30:38.792Z,50.40
2018-03-04T13:31:44.894Z,50.40
2018-03-04T13:32:50.377Z,50.50
2018-03-04T13:33:55.545Z,50.70
2018-03-04T13:35:01.300Z,51.00
2018-03-04T13:36:06.400Z,50.80
2018-03-04T13:37:11.481Z,50.50
2018-03-04T13:38:16.480Z,50.00
2018-03-04T13:39:21.724Z,49.30
2018-03-04T13:40:26.877Z,49.30
2018-03-04T13:41:36.238Z,49.40
2018-03-04T13:42:41.285Z,49.70
2018-03-04T13:43:46.223Z,49.90
2018-03-04T13:44:51.314Z,49.90
2018-03-04T13:45:56.347Z,50.50
2018-03-04T13:47:01.469Z,50.50
2018-03-04T13:48:08.586Z,50.60
2018-03-04T13:49:13.542Z,50.80
2018-03-04T13:50:18.539Z,51.20
2018-03-04T13:51:23.593Z,51.20
2018-03-04T13:52:28.567Z,51.10
2018-03-04T13:53:33.646Z,50.90
2018-03-04T13:54:38.697Z,50.80
2018-03-04T13:55:43.758Z,50.80
2018-03-04T13:56:48.926Z,50.90